sensor_id;sensor_type;location;lat;lon;timestamp;P1;durP1;ratioP1;P2;durP2;ratioP2
45206;SDS011;30950;53.086;21.576;2022-08-19T00:01:44;17.23;;;14.15;;
45206;SDS011;30950;53.086;21.576;2022-08-19T00:04:23;18.05;;;14.55;;
45206;SDS011;30950;53.086;21.576;2022-08-19T00:06:54;19.10;;;13.18;;
45206;SDS011;30950;53.086;21.576;2022-08-19T00:09:22;16.65;;;11.80;;
45206;SDS011;30950;53.086;21.576;2022-08-19T00:11:51;15.98;;;12.20;;
45206;SDS011;30950;53.086;21.576;2022-08-19T00:14:19;20.63;;;14.23;;
45206;SDS011;30950;53.086;21.576;2022-08-19T00:16:47;15.48;;;11.18;;
45206;SDS011;30950;53.086;21.576;2022-08-19T00:19:15;13.00;;;11.65;;
45206;SDS011;30950;53.086;21.576;2022-08-19T00:21:43;15.25;;;11.48;;
45206;SDS011;30950;53.086;21.576;2022-08-19T00:24:11;17.92;;;13.35;;
45206;SDS011;30950;53.086;21.576;2022-08-19T00:26:42;18.55;;;13.68;;
45206;SDS011;30950;53.086;21.576;2022-08-19T00:29:12;16.17;;;11.88;;
45206;SDS011;30950;53.086;21.576;2022-08-19T00:31:41;14.68;;;11.77;;
45206;SDS011;30950;53.086;21.576;2022-08-19T00:34:10;14.68;;;13.18;;
45206;SDS011;30950;53.086;21.576;2022-08-19T00:36:39;19.15;;;14.38;;
45206;SDS011;30950;53.086;21.576;2022-08-19T00:39:07;14.85;;;12.45;;
45206;SDS011;30950;53.086;21.576;2022-08-19T00:41:35;14.05;;;11.68;;
45206;SDS011;30950;53.086;21.576;2022-08-19T00:44:07;17.77;;;13.48;;
45206;SDS011;30950;53.086;21.576;2022-08-19T00:46:36;12.98;;;11.07;;
45206;SDS011;30950;53.086;21.576;2022-08-19T00:49:15;13.90;;;11.82;;
45206;SDS011;30950;53.086;21.576;2022-08-19T00:51:53;17.73;;;15.15;;
45206;SDS011;30950;53.086;21.576;2022-08-19T00:54:26;15.27;;;13.68;;
45206;SDS011;30950;53.086;21.576;2022-08-19T00:56:57;18.25;;;13.15;;
45206;SDS011;30950;53.086;21.576;2022-08-19T00:59:26;20.08;;;13.98;;
45206;SDS011;30950;53.086;21.576;2022-08-19T01:02:15;18.02;;;14.82;;
45206;SDS011;30950;53.086;21.576;2022-08-19T01:04:43;18.17;;;14.20;;
45206;SDS011;30950;53.086;21.576;2022-08-19T01:07:10;19.58;;;14.73;;
45206;SDS011;30950;53.086;21.576;2022-08-19T01:09:43;17.63;;;13.60;;
45206;SDS011;30950;53.086;21.576;2022-08-19T01:12:10;15.90;;;12.70;;
45206;SDS011;30950;53.086;21.576;2022-08-19T01:14:38;15.70;;;12.77;;
45206;SDS011;30950;53.086;21.576;2022-08-19T01:17:09;14.85;;;13.30;;
45206;SDS011;30950;53.086;21.576;2022-08-19T01:19:39;18.52;;;13.27;;
45206;SDS011;30950;53.086;21.576;2022-08-19T01:22:19;15.95;;;13.05;;
45206;SDS011;30950;53.086;21.576;2022-08-19T01:24:58;19.63;;;14.02;;
45206;SDS011;30950;53.086;21.576;2022-08-19T01:27:26;14.38;;;12.25;;
45206;SDS011;30950;53.086;21.576;2022-08-19T01:30:10;15.32;;;13.77;;
45206;SDS011;30950;53.086;21.576;2022-08-19T01:32:40;18.08;;;15.70;;
45206;SDS011;30950;53.086;21.576;2022-08-19T01:35:10;18.20;;;15.75;;
45206;SDS011;30950;53.086;21.576;2022-08-19T01:37:42;22.00;;;14.75;;
45206;SDS011;30950;53.086;21.576;2022-08-19T01:40:23;18.27;;;15.18;;
45206;SDS011;30950;53.086;21.576;2022-08-19T01:42:53;19.85;;;15.70;;
45206;SDS011;30950;53.086;21.576;2022-08-19T01:45:21;17.67;;;14.55;;
45206;SDS011;30950;53.086;21.576;2022-08-19T01:47:52;20.95;;;17.05;;
45206;SDS011;30950;53.086;21.576;2022-08-19T01:50:28;18.80;;;15.00;;
45206;SDS011;30950;53.086;21.576;2022-08-19T01:52:57;21.10;;;16.35;;
45206;SDS011;30950;53.086;21.576;2022-08-19T01:55:34;17.73;;;15.95;;
45206;SDS011;30950;53.086;21.576;2022-08-19T01:58:14;18.75;;;14.40;;
45206;SDS011;30950;53.086;21.576;2022-08-19T02:00:46;27.02;;;16.88;;
45206;SDS011;30950;53.086;21.576;2022-08-19T02:03:14;18.52;;;16.35;;
45206;SDS011;30950;53.086;21.576;2022-08-19T02:05:42;23.15;;;18.73;;
45206;SDS011;30950;53.086;21.576;2022-08-19T02:08:10;20.08;;;16.58;;
45206;SDS011;30950;53.086;21.576;2022-08-19T02:10:40;21.77;;;16.30;;
45206;SDS011;30950;53.086;21.576;2022-08-19T02:13:09;18.00;;;16.00;;
45206;SDS011;30950;53.086;21.576;2022-08-19T02:15:37;22.67;;;16.70;;
45206;SDS011;30950;53.086;21.576;2022-08-19T02:18:05;21.80;;;17.45;;
45206;SDS011;30950;53.086;21.576;2022-08-19T02:20:32;20.92;;;16.20;;
45206;SDS011;30950;53.086;21.576;2022-08-19T02:23:00;21.23;;;18.90;;
45206;SDS011;30950;53.086;21.576;2022-08-19T02:25:27;20.33;;;16.65;;
45206;SDS011;30950;53.086;21.576;2022-08-19T02:27:55;20.77;;;18.08;;
45206;SDS011;30950;53.086;21.576;2022-08-19T02:30:22;22.40;;;18.25;;
45206;SDS011;30950;53.086;21.576;2022-08-19T02:32:51;22.35;;;16.63;;
45206;SDS011;30950;53.086;21.576;2022-08-19T02:35:19;22.25;;;17.67;;
45206;SDS011;30950;53.086;21.576;2022-08-19T02:37:46;17.20;;;15.50;;
45206;SDS011;30950;53.086;21.576;2022-08-19T02:40:32;19.52;;;17.58;;
45206;SDS011;30950;53.086;21.576;2022-08-19T02:43:01;17.13;;;14.65;;
45206;SDS011;30950;53.086;21.576;2022-08-19T02:45:34;23.60;;;17.40;;
45206;SDS011;30950;53.086;21.576;2022-08-19T02:48:07;19.48;;;17.55;;
45206;SDS011;30950;53.086;21.576;2022-08-19T02:50:48;18.77;;;14.90;;
45206;SDS011;30950;53.086;21.576;2022-08-19T02:53:23;21.08;;;15.60;;
45206;SDS011;30950;53.086;21.576;2022-08-19T02:55:52;18.52;;;14.80;;
45206;SDS011;30950;53.086;21.576;2022-08-19T02:58:20;17.55;;;15.65;;
45206;SDS011;30950;53.086;21.576;2022-08-19T03:00:53;21.02;;;18.02;;
45206;SDS011;30950;53.086;21.576;2022-08-19T03:03:22;19.48;;;16.67;;
45206;SDS011;30950;53.086;21.576;2022-08-19T03:05:50;16.48;;;14.80;;
45206;SDS011;30950;53.086;21.576;2022-08-19T03:08:23;22.33;;;16.90;;
45206;SDS011;30950;53.086;21.576;2022-08-19T03:10:51;21.00;;;18.70;;
45206;SDS011;30950;53.086;21.576;2022-08-19T03:13:19;15.48;;;13.70;;
45206;SDS011;30950;53.086;21.576;2022-08-19T03:15:47;23.67;;;17.48;;
45206;SDS011;30950;53.086;21.576;2022-08-19T03:18:15;21.42;;;16.42;;
45206;SDS011;30950;53.086;21.576;2022-08-19T03:20:44;18.70;;;15.70;;
45206;SDS011;30950;53.086;21.576;2022-08-19T03:23:14;17.17;;;15.32;;
45206;SDS011;30950;53.086;21.576;2022-08-19T03:25:43;20.67;;;16.40;;
45206;SDS011;30950;53.086;21.576;2022-08-19T03:28:23;16.90;;;15.10;;
45206;SDS011;30950;53.086;21.576;2022-08-19T03:30:55;18.02;;;16.15;;
45206;SDS011;30950;53.086;21.576;2022-08-19T03:33:28;20.52;;;18.42;;
45206;SDS011;30950;53.086;21.576;2022-08-19T03:36:02;22.88;;;17.38;;
45206;SDS011;30950;53.086;21.576;2022-08-19T03:38:37;19.95;;;15.57;;
45206;SDS011;30950;53.086;21.576;2022-08-19T03:41:08;19.05;;;16.52;;
45206;SDS011;30950;53.086;21.576;2022-08-19T03:43:38;18.88;;;15.43;;
45206;SDS011;30950;53.086;21.576;2022-08-19T03:46:10;20.45;;;16.88;;
45206;SDS011;30950;53.086;21.576;2022-08-19T03:48:39;23.67;;;19.90;;
45206;SDS011;30950;53.086;21.576;2022-08-19T03:51:14;21.92;;;16.35;;
45206;SDS011;30950;53.086;21.576;2022-08-19T03:53:57;18.77;;;16.60;;
45206;SDS011;30950;53.086;21.576;2022-08-19T03:56:27;19.92;;;17.65;;
45206;SDS011;30950;53.086;21.576;2022-08-19T03:58:55;25.27;;;18.35;;
45206;SDS011;30950;53.086;21.576;2022-08-19T04:01:24;22.08;;;19.35;;
45206;SDS011;30950;53.086;21.576;2022-08-19T04:04:00;25.35;;;16.92;;
45206;SDS011;30950;53.086;21.576;2022-08-19T04:06:31;19.95;;;16.08;;
45206;SDS011;30950;53.086;21.576;2022-08-19T04:09:07;23.55;;;17.80;;
45206;SDS011;30950;53.086;21.576;2022-08-19T04:11:40;23.77;;;16.63;;
45206;SDS011;30950;53.086;21.576;2022-08-19T04:14:15;20.95;;;17.52;;
45206;SDS011;30950;53.086;21.576;2022-08-19T04:16:46;20.55;;;16.15;;
45206;SDS011;30950;53.086;21.576;2022-08-19T04:19:15;19.90;;;14.82;;
45206;SDS011;30950;53.086;21.576;2022-08-19T04:21:44;21.92;;;17.60;;
45206;SDS011;30950;53.086;21.576;2022-08-19T04:24:14;19.65;;;14.05;;
45206;SDS011;30950;53.086;21.576;2022-08-19T04:26:42;18.88;;;15.00;;
45206;SDS011;30950;53.086;21.576;2022-08-19T04:29:11;20.77;;;16.52;;
45206;SDS011;30950;53.086;21.576;2022-08-19T04:31:49;18.20;;;14.98;;
45206;SDS011;30950;53.086;21.576;2022-08-19T04:34:17;18.85;;;15.70;;
45206;SDS011;30950;53.086;21.576;2022-08-19T04:36:49;22.10;;;16.85;;
45206;SDS011;30950;53.086;21.576;2022-08-19T04:39:19;17.88;;;16.08;;
45206;SDS011;30950;53.086;21.576;2022-08-19T04:41:49;21.40;;;16.25;;
45206;SDS011;30950;53.086;21.576;2022-08-19T04:44:35;28.65;;;16.45;;
45206;SDS011;30950;53.086;21.576;2022-08-19T04:47:11;17.85;;;16.00;;
45206;SDS011;30950;53.086;21.576;2022-08-19T04:49:39;20.98;;;16.58;;
45206;SDS011;30950;53.086;21.576;2022-08-19T04:52:06;18.02;;;14.73;;
45206;SDS011;30950;53.086;21.576;2022-08-19T04:54:34;19.55;;;15.05;;
45206;SDS011;30950;53.086;21.576;2022-08-19T04:57:05;19.67;;;14.90;;
45206;SDS011;30950;53.086;21.576;2022-08-19T04:59:37;17.05;;;15.27;;
45206;SDS011;30950;53.086;21.576;2022-08-19T05:02:06;20.13;;;14.38;;
45206;SDS011;30950;53.086;21.576;2022-08-19T05:04:35;19.00;;;15.30;;
45206;SDS011;30950;53.086;21.576;2022-08-19T05:07:06;20.45;;;15.68;;
45206;SDS011;30950;53.086;21.576;2022-08-19T05:09:34;19.83;;;14.90;;
45206;SDS011;30950;53.086;21.576;2022-08-19T05:12:22;17.70;;;13.98;;
45206;SDS011;30950;53.086;21.576;2022-08-19T05:14:55;20.80;;;14.45;;
45206;SDS011;30950;53.086;21.576;2022-08-19T05:17:24;21.33;;;14.10;;
45206;SDS011;30950;53.086;21.576;2022-08-19T05:19:57;17.63;;;12.93;;
45206;SDS011;30950;53.086;21.576;2022-08-19T05:22:44;15.05;;;13.40;;
45206;SDS011;30950;53.086;21.576;2022-08-19T05:25:14;20.38;;;12.77;;
45206;SDS011;30950;53.086;21.576;2022-08-19T05:27:45;17.88;;;12.50;;
45206;SDS011;30950;53.086;21.576;2022-08-19T05:30:13;15.45;;;12.85;;
45206;SDS011;30950;53.086;21.576;2022-08-19T05:32:41;14.00;;;12.10;;
45206;SDS011;30950;53.086;21.576;2022-08-19T05:35:09;14.23;;;12.27;;
45206;SDS011;30950;53.086;21.576;2022-08-19T05:37:38;18.25;;;12.20;;
45206;SDS011;30950;53.086;21.576;2022-08-19T05:40:07;15.73;;;10.98;;
45206;SDS011;30950;53.086;21.576;2022-08-19T05:42:36;13.98;;;10.95;;
45206;SDS011;30950;53.086;21.576;2022-08-19T05:45:05;16.92;;;11.70;;
45206;SDS011;30950;53.086;21.576;2022-08-19T05:47:34;23.02;;;11.18;;
45206;SDS011;30950;53.086;21.576;2022-08-19T05:50:08;14.13;;;11.02;;
45206;SDS011;30950;53.086;21.576;2022-08-19T05:52:35;17.90;;;11.10;;
45206;SDS011;30950;53.086;21.576;2022-08-19T05:55:09;14.25;;;10.65;;
45206;SDS011;30950;53.086;21.576;2022-08-19T05:57:36;14.38;;;11.52;;
45206;SDS011;30950;53.086;21.576;2022-08-19T06:00:05;15.55;;;11.43;;
45206;SDS011;30950;53.086;21.576;2022-08-19T06:02:37;10.65;;;9.55;;
45206;SDS011;30950;53.086;21.576;2022-08-19T06:05:05;13.40;;;9.23;;
45206;SDS011;30950;53.086;21.576;2022-08-19T06:07:33;14.25;;;9.70;;
45206;SDS011;30950;53.086;21.576;2022-08-19T06:10:03;13.82;;;9.38;;
45206;SDS011;30950;53.086;21.576;2022-08-19T06:12:32;16.20;;;9.98;;
45206;SDS011;30950;53.086;21.576;2022-08-19T06:15:02;15.70;;;9.95;;
45206;SDS011;30950;53.086;21.576;2022-08-19T06:17:33;15.00;;;10.00;;
45206;SDS011;30950;53.086;21.576;2022-08-19T06:20:05;15.05;;;9.07;;
45206;SDS011;30950;53.086;21.576;2022-08-19T06:22:39;14.25;;;9.63;;
45206;SDS011;30950;53.086;21.576;2022-08-19T06:25:11;15.73;;;9.40;;
45206;SDS011;30950;53.086;21.576;2022-08-19T06:27:40;15.43;;;8.45;;
45206;SDS011;30950;53.086;21.576;2022-08-19T06:30:28;16.48;;;9.63;;
45206;SDS011;30950;53.086;21.576;2022-08-19T06:32:56;11.40;;;8.15;;
45206;SDS011;30950;53.086;21.576;2022-08-19T06:35:23;14.93;;;7.93;;
45206;SDS011;30950;53.086;21.576;2022-08-19T06:37:51;14.27;;;7.85;;
45206;SDS011;30950;53.086;21.576;2022-08-19T06:40:19;14.98;;;7.68;;
45206;SDS011;30950;53.086;21.576;2022-08-19T06:42:46;15.27;;;7.78;;
45206;SDS011;30950;53.086;21.576;2022-08-19T06:45:21;17.05;;;7.50;;
45206;SDS011;30950;53.086;21.576;2022-08-19T06:47:51;12.93;;;7.13;;
45206;SDS011;30950;53.086;21.576;2022-08-19T06:50:21;12.68;;;7.40;;
45206;SDS011;30950;53.086;21.576;2022-08-19T06:52:51;15.15;;;7.70;;
45206;SDS011;30950;53.086;21.576;2022-08-19T06:55:19;11.18;;;6.85;;
45206;SDS011;30950;53.086;21.576;2022-08-19T06:57:46;9.70;;;7.22;;
45206;SDS011;30950;53.086;21.576;2022-08-19T07:00:15;11.25;;;7.32;;
45206;SDS011;30950;53.086;21.576;2022-08-19T07:02:42;9.00;;;7.50;;
45206;SDS011;30950;53.086;21.576;2022-08-19T07:05:19;11.77;;;7.82;;
45206;SDS011;30950;53.086;21.576;2022-08-19T07:07:46;12.82;;;7.45;;
45206;SDS011;30950;53.086;21.576;2022-08-19T07:10:13;10.43;;;7.28;;
45206;SDS011;30950;53.086;21.576;2022-08-19T07:12:40;12.00;;;7.50;;
45206;SDS011;30950;53.086;21.576;2022-08-19T07:15:08;13.60;;;7.18;;
45206;SDS011;30950;53.086;21.576;2022-08-19T07:17:37;10.38;;;7.00;;
45206;SDS011;30950;53.086;21.576;2022-08-19T07:20:07;9.65;;;8.05;;
45206;SDS011;30950;53.086;21.576;2022-08-19T07:22:36;8.57;;;7.10;;
45206;SDS011;30950;53.086;21.576;2022-08-19T07:25:05;12.77;;;7.20;;
45206;SDS011;30950;53.086;21.576;2022-08-19T07:27:35;14.68;;;7.45;;
45206;SDS011;30950;53.086;21.576;2022-08-19T07:30:05;13.20;;;6.68;;
45206;SDS011;30950;53.086;21.576;2022-08-19T07:32:38;12.45;;;7.05;;
45206;SDS011;30950;53.086;21.576;2022-08-19T07:35:06;14.02;;;6.72;;
45206;SDS011;30950;53.086;21.576;2022-08-19T07:37:35;13.38;;;7.28;;
45206;SDS011;30950;53.086;21.576;2022-08-19T07:40:05;12.00;;;6.38;;
45206;SDS011;30950;53.086;21.576;2022-08-19T07:42:33;9.75;;;6.70;;
45206;SDS011;30950;53.086;21.576;2022-08-19T07:45:01;11.15;;;7.25;;
45206;SDS011;30950;53.086;21.576;2022-08-19T07:47:29;14.32;;;7.22;;
45206;SDS011;30950;53.086;21.576;2022-08-19T07:50:17;12.50;;;6.68;;
45206;SDS011;30950;53.086;21.576;2022-08-19T07:52:46;10.93;;;6.75;;
45206;SDS011;30950;53.086;21.576;2022-08-19T07:55:17;9.07;;;6.75;;
45206;SDS011;30950;53.086;21.576;2022-08-19T07:58:09;12.65;;;7.28;;
45206;SDS011;30950;53.086;21.576;2022-08-19T08:00:39;12.93;;;6.60;;
45206;SDS011;30950;53.086;21.576;2022-08-19T08:03:08;9.43;;;7.00;;
45206;SDS011;30950;53.086;21.576;2022-08-19T08:05:35;11.52;;;6.63;;
45206;SDS011;30950;53.086;21.576;2022-08-19T08:08:21;13.37;;;6.97;;
45206;SDS011;30950;53.086;21.576;2022-08-19T08:11:14;12.48;;;7.35;;
45206;SDS011;30950;53.086;21.576;2022-08-19T08:13:46;14.38;;;6.85;;
45206;SDS011;30950;53.086;21.576;2022-08-19T08:16:30;11.35;;;6.30;;
45206;SDS011;30950;53.086;21.576;2022-08-19T08:19:00;8.57;;;7.05;;
45206;SDS011;30950;53.086;21.576;2022-08-19T08:21:27;10.57;;;6.47;;
45206;SDS011;30950;53.086;21.576;2022-08-19T08:23:55;9.27;;;6.18;;
45206;SDS011;30950;53.086;21.576;2022-08-19T08:26:23;9.82;;;7.13;;
45206;SDS011;30950;53.086;21.576;2022-08-19T08:28:51;9.02;;;6.40;;
45206;SDS011;30950;53.086;21.576;2022-08-19T08:31:19;9.13;;;6.07;;
45206;SDS011;30950;53.086;21.576;2022-08-19T08:33:47;14.60;;;6.60;;
45206;SDS011;30950;53.086;21.576;2022-08-19T08:36:15;16.55;;;6.38;;
45206;SDS011;30950;53.086;21.576;2022-08-19T08:38:43;12.75;;;6.20;;
45206;SDS011;30950;53.086;21.576;2022-08-19T08:44:00;13.00;;;6.68;;
45206;SDS011;30950;53.086;21.576;2022-08-19T08:46:34;14.27;;;6.85;;
45206;SDS011;30950;53.086;21.576;2022-08-19T08:49:17;9.98;;;6.40;;
45206;SDS011;30950;53.086;21.576;2022-08-19T08:52:15;11.13;;;6.90;;
45206;SDS011;30950;53.086;21.576;2022-08-19T08:55:00;7.95;;;6.15;;
45206;SDS011;30950;53.086;21.576;2022-08-19T08:58:19;11.80;;;7.47;;
45206;SDS011;30950;53.086;21.576;2022-08-19T09:00:31;12.82;;;6.30;;
45206;SDS011;30950;53.086;21.576;2022-08-19T09:02:58;10.35;;;5.88;;
45206;SDS011;30950;53.086;21.576;2022-08-19T09:05:34;9.90;;;6.28;;
45206;SDS011;30950;53.086;21.576;2022-08-19T09:08:35;8.13;;;5.68;;
45206;SDS011;30950;53.086;21.576;2022-08-19T09:11:04;9.88;;;5.63;;
45206;SDS011;30950;53.086;21.576;2022-08-19T09:16:25;12.77;;;5.60;;
45206;SDS011;30950;53.086;21.576;2022-08-19T09:18:56;8.63;;;5.20;;
45206;SDS011;30950;53.086;21.576;2022-08-19T09:21:28;8.52;;;5.30;;
45206;SDS011;30950;53.086;21.576;2022-08-19T09:23:59;13.32;;;5.70;;
45206;SDS011;30950;53.086;21.576;2022-08-19T09:26:31;7.85;;;5.35;;
45206;SDS011;30950;53.086;21.576;2022-08-19T09:29:19;10.10;;;5.25;;
45206;SDS011;30950;53.086;21.576;2022-08-19T09:31:48;8.55;;;5.57;;
45206;SDS011;30950;53.086;21.576;2022-08-19T09:34:16;13.15;;;8.75;;
45206;SDS011;30950;53.086;21.576;2022-08-19T09:36:48;8.13;;;5.43;;
45206;SDS011;30950;53.086;21.576;2022-08-19T09:39:21;7.35;;;5.28;;
45206;SDS011;30950;53.086;21.576;2022-08-19T09:41:49;8.35;;;4.90;;
45206;SDS011;30950;53.086;21.576;2022-08-19T09:44:18;7.20;;;4.50;;
45206;SDS011;30950;53.086;21.576;2022-08-19T09:46:47;7.47;;;4.55;;
45206;SDS011;30950;53.086;21.576;2022-08-19T09:49:15;11.38;;;5.22;;
45206;SDS011;30950;53.086;21.576;2022-08-19T09:51:44;8.93;;;5.22;;
45206;SDS011;30950;53.086;21.576;2022-08-19T09:54:17;9.88;;;5.15;;
45206;SDS011;30950;53.086;21.576;2022-08-19T09:56:51;10.60;;;5.00;;
45206;SDS011;30950;53.086;21.576;2022-08-19T09:59:20;8.95;;;5.18;;
45206;SDS011;30950;53.086;21.576;2022-08-19T10:01:48;8.85;;;4.55;;
45206;SDS011;30950;53.086;21.576;2022-08-19T10:04:15;6.85;;;4.75;;
45206;SDS011;30950;53.086;21.576;2022-08-19T10:06:48;10.85;;;4.70;;
45206;SDS011;30950;53.086;21.576;2022-08-19T10:09:20;10.10;;;4.75;;
45206;SDS011;30950;53.086;21.576;2022-08-19T10:12:01;11.73;;;5.53;;
45206;SDS011;30950;53.086;21.576;2022-08-19T10:14:31;7.07;;;4.63;;
45206;SDS011;30950;53.086;21.576;2022-08-19T10:17:00;7.30;;;4.80;;
45206;SDS011;30950;53.086;21.576;2022-08-19T10:19:45;11.45;;;4.90;;
45206;SDS011;30950;53.086;21.576;2022-08-19T10:22:22;7.95;;;4.50;;
45206;SDS011;30950;53.086;21.576;2022-08-19T10:24:51;11.27;;;5.30;;
45206;SDS011;30950;53.086;21.576;2022-08-19T10:27:19;12.80;;;5.15;;
45206;SDS011;30950;53.086;21.576;2022-08-19T10:29:46;6.53;;;4.43;;
45206;SDS011;30950;53.086;21.576;2022-08-19T10:32:14;15.77;;;6.55;;
45206;SDS011;30950;53.086;21.576;2022-08-19T10:34:42;11.00;;;4.80;;
45206;SDS011;30950;53.086;21.576;2022-08-19T10:37:15;10.40;;;4.53;;
45206;SDS011;30950;53.086;21.576;2022-08-19T10:39:50;6.43;;;4.22;;
45206;SDS011;30950;53.086;21.576;2022-08-19T10:42:17;7.35;;;4.35;;
45206;SDS011;30950;53.086;21.576;2022-08-19T10:44:45;6.45;;;4.65;;
45206;SDS011;30950;53.086;21.576;2022-08-19T10:47:14;8.57;;;4.10;;
45206;SDS011;30950;53.086;21.576;2022-08-19T10:49:51;10.15;;;4.53;;
45206;SDS011;30950;53.086;21.576;2022-08-19T10:52:39;5.45;;;4.22;;
45206;SDS011;30950;53.086;21.576;2022-08-19T10:55:17;11.32;;;4.40;;
45206;SDS011;30950;53.086;21.576;2022-08-19T10:58:09;8.82;;;4.28;;
45206;SDS011;30950;53.086;21.576;2022-08-19T11:00:42;11.75;;;4.65;;
45206;SDS011;30950;53.086;21.576;2022-08-19T11:03:10;9.13;;;4.25;;
45206;SDS011;30950;53.086;21.576;2022-08-19T11:05:38;7.40;;;4.10;;
45206;SDS011;30950;53.086;21.576;2022-08-19T11:08:06;6.80;;;4.28;;
45206;SDS011;30950;53.086;21.576;2022-08-19T11:10:49;7.25;;;4.20;;
45206;SDS011;30950;53.086;21.576;2022-08-19T11:13:20;9.25;;;4.68;;
45206;SDS011;30950;53.086;21.576;2022-08-19T11:16:03;7.78;;;4.95;;
45206;SDS011;30950;53.086;21.576;2022-08-19T11:18:35;11.50;;;4.40;;
45206;SDS011;30950;53.086;21.576;2022-08-19T11:21:08;6.70;;;4.22;;
45206;SDS011;30950;53.086;21.576;2022-08-19T11:23:47;5.85;;;4.18;;
45206;SDS011;30950;53.086;21.576;2022-08-19T11:26:16;7.25;;;4.30;;
45206;SDS011;30950;53.086;21.576;2022-08-19T11:28:45;12.60;;;4.70;;
45206;SDS011;30950;53.086;21.576;2022-08-19T11:31:15;6.85;;;4.47;;
45206;SDS011;30950;53.086;21.576;2022-08-19T11:33:44;9.60;;;4.15;;
45206;SDS011;30950;53.086;21.576;2022-08-19T11:36:13;11.23;;;4.55;;
45206;SDS011;30950;53.086;21.576;2022-08-19T11:38:42;10.05;;;4.70;;
45206;SDS011;30950;53.086;21.576;2022-08-19T11:41:12;7.13;;;4.32;;
45206;SDS011;30950;53.086;21.576;2022-08-19T11:43:39;6.20;;;4.00;;
45206;SDS011;30950;53.086;21.576;2022-08-19T11:46:07;6.20;;;4.28;;
45206;SDS011;30950;53.086;21.576;2022-08-19T11:48:36;6.30;;;4.15;;
45206;SDS011;30950;53.086;21.576;2022-08-19T11:51:05;8.73;;;4.20;;
45206;SDS011;30950;53.086;21.576;2022-08-19T11:53:36;6.88;;;4.30;;
45206;SDS011;30950;53.086;21.576;2022-08-19T11:56:04;6.57;;;4.35;;
45206;SDS011;30950;53.086;21.576;2022-08-19T11:58:33;7.07;;;4.35;;
45206;SDS011;30950;53.086;21.576;2022-08-19T12:01:01;8.52;;;4.45;;
45206;SDS011;30950;53.086;21.576;2022-08-19T12:03:32;4.90;;;4.00;;
45206;SDS011;30950;53.086;21.576;2022-08-19T12:06:07;5.80;;;3.95;;
45206;SDS011;30950;53.086;21.576;2022-08-19T12:08:37;5.18;;;3.97;;
45206;SDS011;30950;53.086;21.576;2022-08-19T12:11:04;10.43;;;4.70;;
45206;SDS011;30950;53.086;21.576;2022-08-19T12:13:34;7.13;;;4.00;;
45206;SDS011;30950;53.086;21.576;2022-08-19T12:16:14;9.38;;;4.18;;
45206;SDS011;30950;53.086;21.576;2022-08-19T12:18:43;6.60;;;3.92;;
45206;SDS011;30950;53.086;21.576;2022-08-19T12:21:13;10.30;;;4.15;;
45206;SDS011;30950;53.086;21.576;2022-08-19T12:23:41;8.07;;;4.03;;
45206;SDS011;30950;53.086;21.576;2022-08-19T12:26:09;9.80;;;4.05;;
45206;SDS011;30950;53.086;21.576;2022-08-19T12:28:38;8.68;;;4.03;;
45206;SDS011;30950;53.086;21.576;2022-08-19T12:31:05;7.53;;;4.28;;
45206;SDS011;30950;53.086;21.576;2022-08-19T12:33:32;7.32;;;3.30;;
45206;SDS011;30950;53.086;21.576;2022-08-19T12:36:02;6.90;;;3.70;;
45206;SDS011;30950;53.086;21.576;2022-08-19T12:38:32;9.40;;;3.85;;
45206;SDS011;30950;53.086;21.576;2022-08-19T12:41:01;10.88;;;3.78;;
45206;SDS011;30950;53.086;21.576;2022-08-19T12:43:33;8.57;;;4.03;;
45206;SDS011;30950;53.086;21.576;2022-08-19T12:46:08;11.27;;;4.32;;
45206;SDS011;30950;53.086;21.576;2022-08-19T12:48:37;6.22;;;4.13;;
45206;SDS011;30950;53.086;21.576;2022-08-19T12:51:09;7.72;;;4.05;;
45206;SDS011;30950;53.086;21.576;2022-08-19T12:53:39;7.38;;;3.80;;
45206;SDS011;30950;53.086;21.576;2022-08-19T12:56:07;11.35;;;4.10;;
45206;SDS011;30950;53.086;21.576;2022-08-19T12:58:38;11.05;;;4.50;;
45206;SDS011;30950;53.086;21.576;2022-08-19T13:01:10;10.63;;;4.55;;
45206;SDS011;30950;53.086;21.576;2022-08-19T13:03:39;6.50;;;3.90;;
45206;SDS011;30950;53.086;21.576;2022-08-19T13:06:06;6.68;;;3.53;;
45206;SDS011;30950;53.086;21.576;2022-08-19T13:08:35;10.85;;;4.47;;
45206;SDS011;30950;53.086;21.576;2022-08-19T13:11:06;10.40;;;4.25;;
45206;SDS011;30950;53.086;21.576;2022-08-19T13:13:39;9.02;;;3.88;;
45206;SDS011;30950;53.086;21.576;2022-08-19T13:16:08;6.55;;;3.67;;
45206;SDS011;30950;53.086;21.576;2022-08-19T13:18:37;11.73;;;3.70;;
45206;SDS011;30950;53.086;21.576;2022-08-19T13:21:07;6.55;;;3.83;;
45206;SDS011;30950;53.086;21.576;2022-08-19T13:23:35;8.43;;;4.22;;
45206;SDS011;30950;53.086;21.576;2022-08-19T13:26:04;8.65;;;3.30;;
45206;SDS011;30950;53.086;21.576;2022-08-19T13:28:33;7.00;;;3.67;;
45206;SDS011;30950;53.086;21.576;2022-08-19T13:31:20;7.30;;;4.20;;
45206;SDS011;30950;53.086;21.576;2022-08-19T13:34:07;7.72;;;3.70;;
45206;SDS011;30950;53.086;21.576;2022-08-19T13:36:35;8.13;;;3.63;;
45206;SDS011;30950;53.086;21.576;2022-08-19T13:39:04;7.03;;;3.60;;
45206;SDS011;30950;53.086;21.576;2022-08-19T13:41:32;8.77;;;4.00;;
45206;SDS011;30950;53.086;21.576;2022-08-19T13:44:00;5.85;;;4.15;;
45206;SDS011;30950;53.086;21.576;2022-08-19T13:46:28;6.70;;;3.72;;
45206;SDS011;30950;53.086;21.576;2022-08-19T13:48:57;8.13;;;3.83;;
45206;SDS011;30950;53.086;21.576;2022-08-19T13:51:24;11.10;;;4.47;;
45206;SDS011;30950;53.086;21.576;2022-08-19T13:53:51;6.97;;;3.75;;
45206;SDS011;30950;53.086;21.576;2022-08-19T13:56:19;5.18;;;3.92;;
45206;SDS011;30950;53.086;21.576;2022-08-19T13:58:52;7.28;;;3.90;;
45206;SDS011;30950;53.086;21.576;2022-08-19T14:01:20;5.80;;;3.33;;
45206;SDS011;30950;53.086;21.576;2022-08-19T14:03:50;7.68;;;3.80;;
45206;SDS011;30950;53.086;21.576;2022-08-19T14:06:18;7.00;;;3.45;;
45206;SDS011;30950;53.086;21.576;2022-08-19T14:08:45;7.00;;;3.83;;
45206;SDS011;30950;53.086;21.576;2022-08-19T14:11:13;8.43;;;3.65;;
45206;SDS011;30950;53.086;21.576;2022-08-19T14:13:40;8.20;;;4.20;;
45206;SDS011;30950;53.086;21.576;2022-08-19T14:16:08;13.05;;;3.88;;
45206;SDS011;30950;53.086;21.576;2022-08-19T14:18:36;9.52;;;4.03;;
45206;SDS011;30950;53.086;21.576;2022-08-19T14:21:05;9.23;;;4.05;;
45206;SDS011;30950;53.086;21.576;2022-08-19T14:23:33;10.70;;;4.75;;
45206;SDS011;30950;53.086;21.576;2022-08-19T14:26:13;10.93;;;4.00;;
45206;SDS011;30950;53.086;21.576;2022-08-19T14:28:42;11.07;;;4.13;;
45206;SDS011;30950;53.086;21.576;2022-08-19T14:31:11;6.97;;;3.88;;
45206;SDS011;30950;53.086;21.576;2022-08-19T14:33:43;8.10;;;3.55;;
45206;SDS011;30950;53.086;21.576;2022-08-19T14:36:10;14.75;;;4.60;;
45206;SDS011;30950;53.086;21.576;2022-08-19T14:38:37;7.50;;;3.60;;
45206;SDS011;30950;53.086;21.576;2022-08-19T14:41:09;7.47;;;3.92;;
45206;SDS011;30950;53.086;21.576;2022-08-19T14:43:44;10.93;;;3.78;;
45206;SDS011;30950;53.086;21.576;2022-08-19T14:46:14;8.02;;;3.53;;
45206;SDS011;30950;53.086;21.576;2022-08-19T14:48:42;8.77;;;4.15;;
45206;SDS011;30950;53.086;21.576;2022-08-19T14:51:10;7.90;;;3.40;;